createdAt,value
2023-05-19T00:02:09.435Z,101052.94
2023-05-19T00:05:15.174Z,101055.94
2023-05-19T00:08:18.442Z,101048.41
2023-05-19T00:11:22.845Z,101053.53
2023-05-19T00:14:25.484Z,101060.00
2023-05-19T00:17:27.804Z,101062.53
2023-05-19T00:20:30.414Z,101060.97
2023-05-19T00:23:32.869Z,101056.56
2023-05-19T00:26:35.111Z,101059.97
2023-05-19T00:29:40.494Z,101060.31
2023-05-19T00:32:42.864Z,101048.81
2023-05-19T00:35:45.306Z,101044.97
2023-05-19T00:38:47.597Z,101042.13
2023-05-19T00:41:49.885Z,101037.56
2023-05-19T00:44:52.413Z,101043.59
2023-05-19T00:47:54.758Z,101034.66
2023-05-19T00:51:04.817Z,101039.69
2023-05-19T00:54:07.231Z,101034.16
2023-05-19T00:57:09.520Z,101038.63
2023-05-19T01:00:12.618Z,101034.16
2023-05-19T01:03:15.181Z,101029.69
2023-05-19T01:06:19.279Z,101034.16
2023-05-19T01:09:22.652Z,101035.00
2023-05-19T01:12:26.062Z,101029.69
2023-05-19T01:15:28.871Z,101034.25
2023-05-19T01:18:35.703Z,101037.78
2023-05-19T01:22:13.210Z,101042.25
2023-05-19T01:25:33.851Z,101045.31
2023-05-19T01:28:51.029Z,101046.50
2023-05-19T01:31:54.686Z,101037.75
2023-05-19T01:34:57.269Z,101036.91
2023-05-19T01:38:01.151Z,101041.16
2023-05-19T01:41:04.464Z,101041.47
2023-05-19T01:44:07.626Z,101039.84
2023-05-19T01:47:10.893Z,101034.34
2023-05-19T01:50:13.208Z,101023.47
2023-05-19T01:53:15.487Z,101027.75
2023-05-19T01:56:22.890Z,101024.00
2023-05-19T01:59:41.790Z,101027.53
2023-05-19T02:03:01.310Z,101031.78
2023-05-19T02:06:10.277Z,101034.47
2023-05-19T02:09:16.224Z,101032.00
2023-05-19T02:12:44.727Z,101037.13
2023-05-19T02:15:48.064Z,101037.78
2023-05-19T02:18:52.072Z,101029.69
2023-05-19T02:21:54.412Z,101036.72
2023-05-19T02:24:57.545Z,101035.22
2023-05-19T02:28:00.029Z,101036.47
2023-05-19T02:31:08.791Z,101037.75
2023-05-19T02:34:11.251Z,101034.13
2023-05-19T02:37:17.001Z,101032.63
2023-05-19T02:40:19.757Z,101034.34
2023-05-19T02:43:22.069Z,101022.72
2023-05-19T02:46:24.491Z,101025.38
2023-05-19T02:49:27.670Z,101021.78
2023-05-19T02:52:29.951Z,101027.09
2023-05-19T02:55:32.215Z,101034.13
2023-05-19T02:58:34.502Z,101027.31
2023-05-19T03:01:37.801Z,101025.78
2023-05-19T03:07:44.535Z,101035.59
2023-05-19T03:10:47.183Z,101037.28
2023-05-19T03:13:49.438Z,101037.19
2023-05-19T03:16:52.299Z,101042.53
2023-05-19T03:19:54.731Z,101040.63
2023-05-19T03:22:58.480Z,101039.47
2023-05-19T03:26:01.311Z,101049.78
2023-05-19T03:29:03.911Z,101053.94
2023-05-19T03:32:08.602Z,101056.69
2023-05-19T03:35:11.593Z,101037.19
2023-05-19T03:38:13.874Z,101045.38
2023-05-19T03:41:23.238Z,101041.75
2023-05-19T03:44:25.658Z,101044.31
2023-05-19T03:47:28.121Z,101040.63
2023-05-19T03:50:40.161Z,101042.97
2023-05-19T03:53:57.180Z,101042.88
2023-05-19T03:56:59.678Z,101045.31
2023-05-19T04:00:02.882Z,101045.22
2023-05-19T04:03:14.525Z,101048.44
2023-05-19T04:06:17.615Z,101051.75
2023-05-19T04:09:19.945Z,101048.84
2023-05-19T04:12:22.352Z,101053.13
2023-05-19T04:15:24.831Z,101059.88
2023-05-19T04:18:28.946Z,101056.75
2023-05-19T04:21:31.624Z,101060.63
2023-05-19T04:24:33.914Z,101064.22
2023-05-19T04:27:39.334Z,101061.22
2023-05-19T04:30:42.634Z,101071.16
2023-05-19T04:33:44.878Z,101062.75
2023-05-19T04:36:48.071Z,101073.66
2023-05-19T04:39:52.214Z,101072.81
2023-05-19T04:42:56.050Z,101079.19
2023-05-19T04:45:58.671Z,101074.50
2023-05-19T04:49:01.463Z,101077.34
2023-05-19T04:52:04.294Z,101069.75
2023-05-19T04:55:07.967Z,101078.34
2023-05-19T04:58:11.213Z,101080.97
2023-05-19T05:01:16.477Z,101084.97
2023-05-19T05:04:19.790Z,101076.50
2023-05-19T05:07:22.805Z,101082.63
2023-05-19T05:10:27.673Z,101085.34
2023-05-19T05:13:30.237Z,101085.72
2023-05-19T05:16:34.057Z,101079.78
2023-05-19T05:19:36.636Z,101087.31
2023-05-19T05:22:39.406Z,101100.25
2023-05-19T05:25:44.243Z,101094.94
2023-05-19T05:28:47.003Z,101103.13
2023-05-19T05:31:50.327Z,101095.56
2023-05-19T05:34:52.654Z,101092.56
2023-05-19T05:37:55.892Z,101096.09
2023-05-19T05:40:58.319Z,101095.91
2023-05-19T05:44:04.507Z,101093.75
2023-05-19T05:47:07.411Z,101088.38
2023-05-19T05:50:10.159Z,101094.69
2023-05-19T05:53:18.634Z,101099.34
2023-05-19T05:56:22.298Z,101095.06
2023-05-19T05:59:28.176Z,101095.69
2023-05-19T06:02:30.797Z,101093.97
2023-05-19T06:05:34.300Z,101091.00
2023-05-19T06:08:37.487Z,101097.78
2023-05-19T06:11:39.625Z,101100.16
2023-05-19T06:14:42.483Z,101095.72
2023-05-19T06:18:09.205Z,101099.38
2023-05-19T06:21:13.335Z,101097.06
2023-05-19T06:24:16.734Z,101101.59
2023-05-19T06:27:19.053Z,101108.81
2023-05-19T06:30:22.069Z,101113.84
2023-05-19T06:33:41.674Z,101106.53
2023-05-19T06:36:44.093Z,101116.41
2023-05-19T06:39:47.292Z,101123.94
2023-05-19T06:42:49.667Z,101130.28
2023-05-19T06:45:58.059Z,101125.09
2023-05-19T06:49:01.427Z,101126.72
2023-05-19T06:52:07.322Z,101128.44
2023-05-19T06:55:09.876Z,101137.25
2023-05-19T06:58:14.043Z,101132.72
2023-05-19T07:01:16.519Z,101135.59
2023-05-19T07:04:24.572Z,101133.78
2023-05-19T07:07:27.163Z,101130.63
2023-05-19T07:10:31.805Z,101128.34
2023-05-19T07:13:35.812Z,101128.94
2023-05-19T07:16:38.250Z,101127.81
2023-05-19T07:19:41.346Z,101126.72
2023-05-19T07:22:43.929Z,101115.81
2023-05-19T07:25:46.254Z,101110.34
2023-05-19T07:28:48.523Z,101101.38
2023-05-19T07:31:54.277Z,101095.09
2023-05-19T07:34:56.703Z,101104.78
2023-05-19T07:37:59.087Z,101092.03
2023-05-19T07:41:02.412Z,101085.31
2023-05-19T07:44:07.833Z,101091.16
2023-05-19T07:47:10.402Z,101095.63
2023-05-19T07:50:12.682Z,101090.47
2023-05-19T07:53:15.507Z,101093.63
2023-05-19T07:56:17.842Z,101090.34
2023-05-19T07:59:20.111Z,101086.44
2023-05-19T08:02:22.461Z,101077.19
2023-05-19T08:05:26.071Z,101088.59
2023-05-19T08:08:28.367Z,101084.00
2023-05-19T08:11:30.833Z,101086.25
2023-05-19T08:14:34.890Z,101084.47
2023-05-19T08:17:37.656Z,101085.19
2023-05-19T08:20:39.941Z,101083.75
2023-05-19T08:23:42.241Z,101082.16
2023-05-19T08:26:44.630Z,101085.16
2023-05-19T08:29:46.949Z,101076.03
2023-05-19T08:32:49.288Z,101071.50
2023-05-19T08:35:51.758Z,101086.28
2023-05-19T08:38:54.031Z,101074.59
2023-05-19T08:41:56.506Z,101081.72
2023-05-19T08:45:00.011Z,101091.84
2023-05-19T08:48:03.390Z,101089.09
2023-05-19T08:51:33.255Z,101085.53
2023-05-19T08:54:44.896Z,101079.38
2023-05-19T08:57:48.937Z,101082.31
2023-05-19T09:00:52.185Z,101082.00
2023-05-19T09:03:55.055Z,101077.91
2023-05-19T09:06:58.866Z,101075.13
2023-05-19T09:10:02.084Z,101082.66
2023-05-19T09:13:05.211Z,101077.28
2023-05-19T09:16:08.376Z,101079.88
2023-05-19T09:19:16.072Z,101083.03
2023-05-19T09:22:21.326Z,101083.03
2023-05-19T09:25:24.026Z,101077.34
2023-05-19T09:28:30.608Z,101080.56
2023-05-19T09:31:33.763Z,101080.81
2023-05-19T09:34:41.740Z,101069.41
2023-05-19T09:37:44.125Z,101075.50
2023-05-19T09:40:48.998Z,101074.13
2023-05-19T09:43:56.249Z,101069.31
2023-05-19T09:46:58.864Z,101062.50
2023-05-19T09:50:01.145Z,101055.94
2023-05-19T09:53:04.110Z,101055.25
2023-05-19T09:56:08.764Z,101059.41
2023-05-19T09:59:12.468Z,101055.25
2023-05-19T10:02:17.821Z,101051.47
2023-05-19T10:05:21.139Z,101045.06
2023-05-19T10:08:26.457Z,101039.97
2023-05-19T10:11:30.233Z,101040.97
2023-05-19T10:14:32.507Z,101031.59
2023-05-19T10:17:36.166Z,101037.13
2023-05-19T10:20:39.893Z,101035.28
2023-05-19T10:23:42.197Z,101038.22
2023-05-19T10:26:46.464Z,101036.97
2023-05-19T10:29:50.262Z,101031.59
2023-05-19T10:32:54.730Z,101036.69
2023-05-19T10:36:12.499Z,101029.44
2023-05-19T10:39:19.350Z,101029.25
2023-05-19T10:42:41.068Z,101034.22
2023-05-19T10:45:52.015Z,101031.88
2023-05-19T10:48:54.648Z,101020.41
2023-05-19T10:51:57.269Z,101014.00
2023-05-19T10:55:01.208Z,101018.19
2023-05-19T10:58:03.844Z,101021.25
2023-05-19T11:01:30.111Z,101003.38
2023-05-19T11:04:54.193Z,101006.63
2023-05-19T11:08:02.229Z,101006.13
2023-05-19T11:11:17.648Z,101001.56
2023-05-19T11:14:19.924Z,100995.34
2023-05-19T11:17:23.755Z,100992.75
2023-05-19T11:20:27.027Z,100996.56
2023-05-19T11:23:35.456Z,101000.56
2023-05-19T11:26:44.152Z,100999.41
2023-05-19T11:29:48.402Z,101000.84
2023-05-19T11:32:50.876Z,100998.56
2023-05-19T11:35:57.606Z,100992.06
2023-05-19T11:39:00.181Z,100990.63
2023-05-19T11:42:02.576Z,100983.53
2023-05-19T11:45:06.340Z,100986.44
2023-05-19T11:48:12.851Z,100989.38
2023-05-19T11:51:16.473Z,100989.38
2023-05-19T11:54:19.291Z,100992.38
2023-05-19T11:57:22.544Z,100986.59
2023-05-19T12:00:33.569Z,100991.69
2023-05-19T12:03:36.027Z,100981.19
2023-05-19T12:06:38.375Z,100970.97
2023-05-19T12:09:40.613Z,100974.38
2023-05-19T12:12:45.180Z,100968.97
2023-05-19T12:15:47.477Z,100966.13
2023-05-19T12:18:49.926Z,100963.28
2023-05-19T12:21:53.098Z,100964.28
2023-05-19T12:24:56.185Z,100958.78
2023-05-19T12:27:59.686Z,100958.13
2023-05-19T12:31:02.806Z,100953.59
2023-05-19T12:34:05.099Z,100948.00
2023-05-19T12:37:07.448Z,100947.19
2023-05-19T12:40:10.339Z,100941.41
2023-05-19T12:43:22.617Z,100935.03
2023-05-19T12:46:25.073Z,100934.41
2023-05-19T12:49:27.431Z,100936.41
2023-05-19T12:52:31.121Z,100930.41
2023-05-19T12:55:41.772Z,100921.84
2023-05-19T12:58:44.217Z,100928.09
2023-05-19T13:01:46.544Z,100933.16
2023-05-19T13:04:48.969Z,100928.47
2023-05-19T13:08:05.357Z,100917.78
2023-05-19T13:11:07.654Z,100919.97
2023-05-19T13:14:10.505Z,100910.72
2023-05-19T13:17:12.760Z,100907.19
2023-05-19T13:20:15.189Z,100912.75
2023-05-19T13:23:17.571Z,100902.09
2023-05-19T13:26:19.976Z,100899.25
2023-05-19T13:29:22.448Z,100900.66
2023-05-19T13:32:24.934Z,100896.25
2023-05-19T13:35:27.878Z,100884.00
2023-05-19T13:38:30.860Z,100878.81
2023-05-19T13:41:33.192Z,100883.50
2023-05-19T13:44:35.555Z,100881.13
2023-05-19T13:47:38.690Z,100877.22
2023-05-19T13:50:41.003Z,100882.63
2023-05-19T13:53:43.350Z,100883.63
2023-05-19T13:56:49.020Z,100885.47
2023-05-19T14:00:01.562Z,100870.59
2023-05-19T14:03:16.274Z,100875.00
2023-05-19T14:06:18.676Z,100866.59
2023-05-19T14:09:21.118Z,100872.00
2023-05-19T14:12:30.640Z,100869.44
2023-05-19T14:15:39.183Z,100862.25
2023-05-19T14:18:41.551Z,100869.34
2023-05-19T14:21:43.943Z,100868.72
2023-05-19T14:24:46.223Z,100858.47
2023-05-19T14:27:48.590Z,100858.97
2023-05-19T14:30:51.129Z,100869.78
2023-05-19T14:33:53.499Z,100867.22
2023-05-19T14:36:56.153Z,100862.25
2023-05-19T14:39:58.611Z,100862.91
2023-05-19T14:43:00.900Z,100863.50
2023-05-19T14:46:03.213Z,100862.59
2023-05-19T14:49:06.610Z,100859.41
2023-05-19T14:52:08.996Z,100868.19
2023-05-19T14:55:11.264Z,100860.25
2023-05-19T14:58:27.385Z,100856.56
2023-05-19T15:01:31.166Z,100858.56
2023-05-19T15:04:33.469Z,100856.56
2023-05-19T15:07:36.137Z,100857.25
2023-05-19T15:10:38.385Z,100855.09
2023-05-19T15:13:40.615Z,100855.59
2023-05-19T15:16:43.065Z,100841.78
2023-05-19T15:19:45.497Z,100844.19
2023-05-19T15:22:47.742Z,100847.25
2023-05-19T15:25:50.024Z,100842.38
2023-05-19T15:28:52.683Z,100850.31
2023-05-19T15:31:56.053Z,100850.31
2023-05-19T15:34:58.382Z,100842.06
2023-05-19T15:38:06.024Z,100847.84
2023-05-19T15:41:08.901Z,100846.66
2023-05-19T15:44:11.207Z,100840.25
2023-05-19T15:47:13.817Z,100846.34
2023-05-19T15:50:16.871Z,100845.34
2023-05-19T15:53:20.232Z,100836.41
2023-05-19T15:56:22.601Z,100834.88
2023-05-19T15:59:25.385Z,100837.41
2023-05-19T16:02:27.790Z,100835.88
2023-05-19T16:05:30.182Z,100837.72
2023-05-19T16:08:32.530Z,100841.44
2023-05-19T16:11:34.899Z,100839.66
2023-05-19T16:14:37.844Z,100844.50
2023-05-19T16:17:40.296Z,100846.72
2023-05-19T16:23:46.286Z,100856.00
2023-05-19T16:26:48.720Z,100854.69
2023-05-19T16:29:51.168Z,100855.66
2023-05-19T16:32:54.538Z,100851.22
2023-05-19T16:35:58.335Z,100858.91
2023-05-19T16:39:00.919Z,100859.47
2023-05-19T16:42:04.666Z,100855.91
2023-05-19T16:45:07.570Z,100858.34
2023-05-19T16:48:10.043Z,100848.25
2023-05-19T16:51:12.669Z,100852.63
2023-05-19T16:54:14.892Z,100856.56
2023-05-19T16:57:17.075Z,100853.56
2023-05-19T17:00:22.408Z,100851.38
2023-05-19T17:03:24.844Z,100847.69
2023-05-19T17:06:27.385Z,100856.09
2023-05-19T17:09:29.669Z,100848.91
2023-05-19T17:12:31.952Z,100849.06
2023-05-19T17:15:34.873Z,100851.59
2023-05-19T17:18:37.456Z,100854.63
2023-05-19T17:21:40.499Z,100846.47
2023-05-19T17:24:42.832Z,100853.94
2023-05-19T17:27:45.134Z,100860.22
2023-05-19T17:30:47.772Z,100856.94
2023-05-19T17:33:50.481Z,100866.63
2023-05-19T17:36:53.524Z,100858.09
2023-05-19T17:39:55.847Z,100867.16
2023-05-19T17:42:58.684Z,100871.53
2023-05-19T17:46:01.474Z,100872.41
2023-05-19T17:49:03.649Z,100875.94
2023-05-19T17:52:06.595Z,100873.91
2023-05-19T17:55:11.922Z,100879.28
2023-05-19T17:58:14.396Z,100877.59
2023-05-19T18:01:24.192Z,100876.94
2023-05-19T18:04:27.833Z,100871.84
2023-05-19T18:07:31.548Z,100868.31
2023-05-19T18:10:36.959Z,100866.75
2023-05-19T18:13:39.316Z,100870.72
2023-05-19T18:16:41.831Z,100862.00
2023-05-19T18:19:44.185Z,100862.28
2023-05-19T18:22:47.030Z,100869.66
2023-05-19T18:25:51.725Z,100873.63
2023-05-19T18:28:53.988Z,100867.72
2023-05-19T18:31:56.284Z,100879.50
2023-05-19T18:34:58.625Z,100883.63
2023-05-19T18:38:00.985Z,100875.16
2023-05-19T18:41:03.400Z,100880.94
2023-05-19T18:44:07.987Z,100882.38
2023-05-19T18:47:11.049Z,100885.56
2023-05-19T18:50:13.382Z,100897.34
2023-05-19T18:53:15.926Z,100890.31
2023-05-19T18:56:25.181Z,100897.13
2023-05-19T18:59:27.661Z,100900.97
2023-05-19T19:02:29.995Z,100896.84
2023-05-19T19:05:32.349Z,100893.44
2023-05-19T19:08:34.595Z,100895.75
2023-05-19T19:11:37.007Z,100899.72
2023-05-19T19:14:39.302Z,100905.38
2023-05-19T19:17:42.069Z,100899.28
2023-05-19T19:20:44.568Z,100907.94
2023-05-19T19:23:46.832Z,100909.47
2023-05-19T19:26:49.104Z,100915.41
2023-05-19T19:29:51.334Z,100922.75
2023-05-19T19:32:54.865Z,100924.03
2023-05-19T19:35:57.311Z,100924.34
2023-05-19T19:38:59.691Z,100925.88
2023-05-19T19:42:02.082Z,100929.81
2023-05-19T19:45:05.785Z,100932.94
2023-05-19T19:48:08.184Z,100929.69
2023-05-19T19:51:10.652Z,100928.25
2023-05-19T19:54:12.913Z,100933.94
2023-05-19T19:57:17.313Z,100929.94
2023-05-19T20:00:19.779Z,100937.28
2023-05-19T20:03:22.283Z,100931.06
2023-05-19T20:06:24.757Z,100935.44
2023-05-19T20:09:27.108Z,100935.59
2023-05-19T20:12:30.202Z,100940.41
2023-05-19T20:15:32.462Z,100938.84
2023-05-19T20:18:34.718Z,100934.47
2023-05-19T20:21:37.058Z,100935.56
2023-05-19T20:24:39.484Z,100938.13
2023-05-19T20:27:41.738Z,100927.25
2023-05-19T20:30:44.172Z,100933.34
2023-05-19T20:33:46.445Z,100937.84
2023-05-19T20:36:48.720Z,100938.97
2023-05-19T20:39:51.012Z,100940.94
2023-05-19T20:42:53.374Z,100937.28
2023-05-19T20:45:55.799Z,100932.75
2023-05-19T20:48:58.173Z,100932.75
2023-05-19T20:52:00.546Z,100928.50
2023-05-19T20:55:03.251Z,100933.16
2023-05-19T20:58:05.612Z,100929.50
2023-05-19T21:01:07.943Z,100928.25
2023-05-19T21:04:10.360Z,100933.59
2023-05-19T21:07:12.866Z,100926.28
2023-05-19T21:10:15.352Z,100920.91
2023-05-19T21:13:18.130Z,100919.91
2023-05-19T21:16:20.608Z,100917.22
2023-05-19T21:19:23.407Z,100919.19
2023-05-19T21:22:26.754Z,100924.56
2023-05-19T21:25:29.069Z,100918.47
2023-05-19T21:28:31.469Z,100921.16
2023-05-19T21:31:35.310Z,100921.31
2023-05-19T21:34:38.926Z,100922.41
2023-05-19T21:37:41.427Z,100922.84
2023-05-19T21:40:47.112Z,100916.91
2023-05-19T21:43:49.469Z,100920.00
2023-05-19T21:46:51.972Z,100921.84
2023-05-19T21:49:54.427Z,100919.44
2023-05-19T21:52:56.766Z,100916.31
2023-05-19T21:55:59.641Z,100917.69
2023-05-19T21:59:01.929Z,100910.03
2023-05-19T22:02:04.959Z,100907.63
2023-05-19T22:05:07.663Z,100905.22
2023-05-19T22:08:09.991Z,100907.16
2023-05-19T22:11:14.863Z,100906.63
2023-05-19T22:14:17.623Z,100900.94
2023-05-19T22:17:19.818Z,100885.41
2023-05-19T22:20:22.017Z,100883.97
2023-05-19T22:23:24.377Z,100886.91
2023-05-19T22:26:27.270Z,100881.13
2023-05-19T22:29:29.402Z,100879.81
2023-05-19T22:32:32.816Z,100877.94
2023-05-19T22:35:37.735Z,100887.94
2023-05-19T22:38:40.070Z,100880.50
2023-05-19T22:41:42.523Z,100877.41
2023-05-19T22:44:45.913Z,100876.88
2023-05-19T22:47:48.458Z,100879.69
2023-05-19T22:50:50.984Z,100881.38
2023-05-19T22:53:53.303Z,100889.44
2023-05-19T22:56:55.658Z,100883.09
2023-05-19T22:59:57.901Z,100881.38
2023-05-19T23:03:00.246Z,100878.97
2023-05-19T23:06:02.610Z,100869.94
2023-05-19T23:09:05.047Z,100872.63
2023-05-19T23:12:07.399Z,100861.47
2023-05-19T23:15:10.985Z,100859.06
2023-05-19T23:18:15.068Z,100860.41
2023-05-19T23:21:17.526Z,100859.84
2023-05-19T23:24:20.159Z,100861.53
2023-05-19T23:27:22.784Z,100859.84
2023-05-19T23:30:25.132Z,100860.69
2023-05-19T23:33:27.424Z,100862.94
2023-05-19T23:36:29.691Z,100851.63
2023-05-19T23:39:31.964Z,100851.88
2023-05-19T23:42:34.635Z,100855.53
2023-05-19T23:45:36.904Z,100843.97
2023-05-19T23:48:39.457Z,100851.03
2023-05-19T23:51:41.747Z,100842.88
2023-05-19T23:54:44.065Z,100835.81
2023-05-19T23:57:46.295Z,100837.50
